createdAt,value
2022-08-17T00:01:27.465Z,101174.59
2022-08-17T00:03:54.559Z,101174.75
2022-08-17T00:06:27.305Z,101166.88
2022-08-17T00:08:59.747Z,101169.50
2022-08-17T00:11:38.455Z,101156.34
2022-08-17T00:14:08.524Z,101150.28
2022-08-17T00:16:55.885Z,101149.44
2022-08-17T00:19:25.940Z,101155.53
2022-08-17T00:22:31.113Z,101157.31
2022-08-17T00:24:40.540Z,101142.41
2022-08-17T00:27:08.002Z,101140.75
2022-08-17T00:29:34.427Z,101138.94
2022-08-17T00:33:15.195Z,101134.66
2022-08-17T00:34:49.928Z,101143.38
2022-08-17T00:37:16.635Z,101141.69
2022-08-17T00:39:43.035Z,101139.06
2022-08-17T00:42:18.423Z,101138.13
2022-08-17T00:44:45.993Z,101140.06
2022-08-17T00:47:12.446Z,101139.94
2022-08-17T00:49:38.795Z,101134.81
2022-08-17T00:52:15.343Z,101133.97
2022-08-17T00:54:44.927Z,101131.19
2022-08-17T00:57:17.753Z,101130.38
2022-08-17T00:59:51.145Z,101124.31
2022-08-17T01:02:34.373Z,101126.09
2022-08-17T01:05:16.324Z,101116.44
2022-08-17T01:07:47.662Z,101116.44
2022-08-17T01:11:00.251Z,101100.81
2022-08-17T01:13:02.564Z,101101.63
2022-08-17T01:15:31.359Z,101106.06
2022-08-17T01:17:57.916Z,101100.81
2022-08-17T01:20:24.266Z,101103.44
2022-08-17T01:22:50.839Z,101104.25
2022-08-17T01:25:18.507Z,101098.03
2022-08-17T01:27:44.935Z,101093.75
2022-08-17T01:30:57.270Z,101099.81
2022-08-17T01:33:01.840Z,101102.59
2022-08-17T01:35:28.263Z,101099.97
2022-08-17T01:37:54.632Z,101095.56
2022-08-17T01:40:35.475Z,101099.97
2022-08-17T01:43:08.320Z,101094.72
2022-08-17T01:45:41.124Z,101086.81
2022-08-17T01:48:07.775Z,101088.63
2022-08-17T01:50:37.876Z,101088.63
2022-08-17T01:53:07.997Z,101088.63
2022-08-17T01:55:42.924Z,101096.50
2022-08-17T01:58:09.783Z,101097.34
2022-08-17T02:00:59.570Z,101093.03
2022-08-17T02:03:25.336Z,101085.16
2022-08-17T02:05:53.204Z,101089.47
2022-08-17T02:08:20.446Z,101088.63
2022-08-17T02:11:11.196Z,101096.38
2022-08-17T02:13:39.487Z,101099.13
2022-08-17T02:16:05.960Z,101100.81
2022-08-17T02:18:32.786Z,101113.94
2022-08-17T02:20:59.177Z,101110.47
2022-08-17T02:23:29.142Z,101128.84
2022-08-17T02:25:58.655Z,101125.41
2022-08-17T02:28:25.087Z,101133.16
2022-08-17T02:31:01.977Z,101146.28
2022-08-17T02:33:41.728Z,101149.84
2022-08-17T02:36:12.034Z,101151.66
2022-08-17T02:38:39.455Z,101144.75
2022-08-17T02:41:06.258Z,101152.63
2022-08-17T02:43:32.755Z,101153.44
2022-08-17T02:45:59.107Z,101155.25
2022-08-17T02:48:28.033Z,101151.81
2022-08-17T02:50:58.845Z,101141.28
2022-08-17T02:53:25.690Z,101132.56
2022-08-17T02:55:52.409Z,101125.69
2022-08-17T02:58:29.635Z,101132.72
2022-08-17T03:01:04.601Z,101129.94
2022-08-17T03:03:31.078Z,101128.31
2022-08-17T03:05:57.794Z,101126.50
2022-08-17T03:08:25.308Z,101120.44
2022-08-17T03:10:51.674Z,101120.44
2022-08-17T03:13:18.168Z,101124.00
2022-08-17T03:15:46.680Z,101110.88
2022-08-17T03:18:19.135Z,101117.94
2022-08-17T03:20:52.371Z,101104.81
2022-08-17T03:23:18.742Z,101104.69
2022-08-17T03:25:50.513Z,101096.94
2022-08-17T03:28:20.398Z,101099.56
2022-08-17T03:30:46.872Z,101103.00
2022-08-17T03:33:14.272Z,101102.19
2022-08-17T03:35:41.632Z,101111.84
2022-08-17T03:38:10.193Z,101102.19
2022-08-17T03:40:56.512Z,101100.53
2022-08-17T03:43:23.617Z,101096.09
2022-08-17T03:46:10.735Z,101109.22
2022-08-17T03:49:12.828Z,101117.09
2022-08-17T03:51:57.593Z,101127.59
2022-08-17T03:54:42.220Z,101143.50
2022-08-17T03:57:10.707Z,101153.19
2022-08-17T03:59:38.024Z,101153.84
2022-08-17T04:02:12.919Z,101149.59
2022-08-17T04:04:39.780Z,101140.06
2022-08-17T04:07:07.415Z,101138.25
2022-08-17T04:09:34.399Z,101145.31
2022-08-17T04:12:02.257Z,101141.00
2022-08-17T04:14:36.178Z,101155.81
2022-08-17T04:17:17.802Z,101155.81
2022-08-17T04:19:44.816Z,101151.50
2022-08-17T04:22:11.414Z,101151.50
2022-08-17T04:24:57.881Z,101148.06
2022-08-17T04:27:25.348Z,101150.69
2022-08-17T04:29:54.734Z,101155.13
2022-08-17T04:32:25.168Z,101155.13
2022-08-17T04:35:09.322Z,101160.25
2022-08-17T04:37:35.694Z,101148.88
2022-08-17T04:40:40.574Z,101153.31
2022-08-17T04:43:12.783Z,101147.25
2022-08-17T04:45:55.356Z,101154.41
2022-08-17T04:48:36.353Z,101144.72
2022-08-17T04:51:13.260Z,101143.91
2022-08-17T04:53:41.575Z,101142.00
2022-08-17T04:56:15.995Z,101134.22
2022-08-17T04:58:49.767Z,101142.09
2022-08-17T05:01:23.073Z,101131.75
2022-08-17T05:03:50.757Z,101146.53
2022-08-17T05:06:17.116Z,101138.66
2022-08-17T05:08:43.464Z,101147.34
2022-08-17T05:11:10.379Z,101138.66
2022-08-17T05:13:36.752Z,101143.91
2022-08-17T05:16:04.491Z,101148.34
2022-08-17T05:18:31.902Z,101143.91
2022-08-17T05:20:58.405Z,101149.31
2022-08-17T05:23:27.095Z,101143.91
2022-08-17T05:26:11.034Z,101142.25
2022-08-17T05:28:49.477Z,101144.88
2022-08-17T05:31:17.912Z,101147.50
2022-08-17T05:33:46.184Z,101147.50
2022-08-17T05:36:43.579Z,101144.88
2022-08-17T05:39:01.568Z,101140.47
2022-08-17T05:41:27.921Z,101135.88
2022-08-17T05:43:56.393Z,101150.63
2022-08-17T05:46:27.379Z,101147.03
2022-08-17T05:49:02.380Z,101135.28
2022-08-17T05:51:39.160Z,101133.78
2022-08-17T05:54:39.467Z,101136.78
2022-08-17T05:57:24.167Z,101136.38
2022-08-17T06:00:12.976Z,101128.06
2022-08-17T06:03:05.140Z,101123.81
2022-08-17T06:05:55.016Z,101117.56
2022-08-17T06:08:39.642Z,101115.78
2022-08-17T06:11:26.614Z,101114.13
2022-08-17T06:14:24.995Z,101121.31
2022-08-17T06:17:00.397Z,101127.78
2022-08-17T06:19:40.973Z,101135.81
2022-08-17T06:22:11.926Z,101142.69
2022-08-17T06:25:04.519Z,101150.56
2022-08-17T06:27:40.506Z,101138.28
2022-08-17T06:30:14.132Z,101145.31
2022-08-17T06:32:44.943Z,101156.66
2022-08-17T06:35:15.509Z,101158.56
2022-08-17T06:38:35.001Z,101168.50
2022-08-17T06:41:02.136Z,101172.09
2022-08-17T06:43:56.788Z,101186.03
2022-08-17T06:46:37.010Z,101182.31
2022-08-17T06:49:26.053Z,101185.19
2022-08-17T06:52:00.556Z,101185.19
2022-08-17T06:54:38.629Z,101182.84
2022-08-17T06:57:19.578Z,101182.84
2022-08-17T07:00:08.964Z,101181.03
2022-08-17T07:02:59.470Z,101174.16
2022-08-17T07:05:33.738Z,101177.59
2022-08-17T07:08:18.462Z,101182.84
2022-08-17T07:10:50.940Z,101171.41
2022-08-17T07:13:51.379Z,101181.91
2022-08-17T07:16:27.944Z,101177.59
2022-08-17T07:18:56.793Z,101187.28
2022-08-17T07:21:41.719Z,101186.44
2022-08-17T07:24:39.370Z,101190.03
2022-08-17T07:27:10.368Z,101193.63
2022-08-17T07:29:42.029Z,101191.00
2022-08-17T07:32:11.479Z,101182.16
2022-08-17T07:35:11.274Z,101196.09
2022-08-17T07:37:41.198Z,101192.38
2022-08-17T07:40:33.956Z,101195.00
2022-08-17T07:43:21.667Z,101195.56
2022-08-17T07:46:18.856Z,101193.53
2022-08-17T07:48:51.846Z,101191.72
2022-08-17T07:51:25.099Z,101186.34
2022-08-17T07:53:53.582Z,101186.34
2022-08-17T07:56:34.593Z,101199.44
2022-08-17T07:59:33.438Z,101201.41
2022-08-17T08:02:03.645Z,101196.97
2022-08-17T08:07:31.798Z,101208.41
2022-08-17T08:10:01.215Z,101212.56
2022-08-17T08:12:35.537Z,101213.16
2022-08-17T08:15:17.667Z,101226.81
2022-08-17T08:17:54.014Z,101221.31
2022-08-17T08:20:51.380Z,101215.94
2022-08-17T08:23:41.708Z,101229.75
2022-08-17T08:26:22.972Z,101228.78
2022-08-17T08:29:01.559Z,101228.63
2022-08-17T08:31:43.073Z,101241.03
2022-08-17T08:34:47.346Z,101232.47
2022-08-17T08:37:44.849Z,101252.75
2022-08-17T08:40:26.336Z,101245.28
2022-08-17T08:43:05.359Z,101254.97
2022-08-17T08:45:56.486Z,101263.78
2022-08-17T08:49:06.499Z,101273.31
2022-08-17T08:51:51.628Z,101262.81
2022-08-17T08:54:43.743Z,101251.19
2022-08-17T08:57:29.436Z,101253.69
2022-08-17T09:00:20.043Z,101241.66
2022-08-17T09:03:36.542Z,101233.66
2022-08-17T09:06:32.187Z,101238.06
2022-08-17T09:09:12.960Z,101234.63
2022-08-17T09:12:01.245Z,101240.00
2022-08-17T09:14:46.799Z,101248.84
2022-08-17T09:17:19.076Z,101263.03
2022-08-17T09:19:57.884Z,101270.47
2022-08-17T09:22:34.022Z,101303.16
2022-08-17T09:25:10.490Z,101350.38
2022-08-17T09:28:03.770Z,101372.78
2022-08-17T09:30:53.016Z,101362.28
2022-08-17T09:35:56.416Z,101347.22
2022-08-17T09:39:09.217Z,101309.69
2022-08-17T09:41:52.516Z,101240.38
2022-08-17T09:44:36.027Z,101201.28
2022-08-17T09:47:15.768Z,101209.28
2022-08-17T09:50:00.323Z,101218.44
2022-08-17T09:52:29.244Z,101196.09
2022-08-17T09:54:58.089Z,101196.66
2022-08-17T09:57:42.411Z,101200.41
2022-08-17T10:00:27.983Z,101200.06
2022-08-17T10:03:08.277Z,101205.59
2022-08-17T10:06:06.872Z,101221.59
2022-08-17T10:08:41.978Z,101235.66
2022-08-17T10:11:45.682Z,101222.41
2022-08-17T10:14:37.381Z,101215.13
2022-08-17T10:17:22.648Z,101213.19
2022-08-17T10:19:57.775Z,101216.50
2022-08-17T10:23:02.012Z,101222.47
2022-08-17T10:25:55.674Z,101229.50
2022-08-17T10:28:29.843Z,101234.75
2022-08-17T10:31:23.460Z,101237.25
2022-08-17T10:34:12.133Z,101245.34
2022-08-17T10:36:55.781Z,101253.34
2022-08-17T10:39:25.212Z,101249.78
2022-08-17T10:41:57.716Z,101252.28
2022-08-17T10:44:50.911Z,101262.78
2022-08-17T10:47:19.113Z,101259.31
2022-08-17T10:49:49.487Z,101259.44
2022-08-17T10:52:27.756Z,101263.03
2022-08-17T10:54:58.157Z,101262.22
2022-08-17T10:57:27.991Z,101269.09
2022-08-17T10:59:56.279Z,101264.84
2022-08-17T11:02:26.909Z,101266.47
2022-08-17T11:05:19.432Z,101270.09
2022-08-17T11:08:20.397Z,101291.19
2022-08-17T11:10:54.923Z,101300.84
2022-08-17T11:13:31.936Z,101319.31
2022-08-17T11:16:35.082Z,101333.56
2022-08-17T11:19:27.795Z,101350.25
2022-08-17T11:22:14.081Z,101346.91
2022-08-17T11:24:45.525Z,101354.63
2022-08-17T11:27:27.017Z,101349.28
2022-08-17T11:30:02.138Z,101349.97
2022-08-17T11:35:22.296Z,101346.03
2022-08-17T11:38:15.838Z,101329.88
2022-08-17T11:41:12.699Z,101321.06
2022-08-17T11:43:57.548Z,101314.72
2022-08-17T11:46:23.819Z,101317.09
2022-08-17T11:49:54.363Z,101323.03
2022-08-17T11:52:46.093Z,101327.19
2022-08-17T11:55:39.560Z,101329.69
2022-08-17T11:58:26.636Z,101331.22
2022-08-17T12:01:00.991Z,101332.06
2022-08-17T12:03:33.289Z,101338.84
2022-08-17T12:06:05.509Z,101329.16
2022-08-17T12:08:33.839Z,101326.53
2022-08-17T12:11:06.288Z,101318.66
2022-08-17T12:13:42.873Z,101310.66
2022-08-17T12:16:14.808Z,101306.25
2022-08-17T12:18:50.151Z,101307.09
2022-08-17T12:21:26.693Z,101310.53
2022-08-17T12:24:06.378Z,101306.09
2022-08-17T12:26:35.348Z,101310.41
2022-08-17T12:29:06.405Z,101306.81
2022-08-17T12:31:45.823Z,101311.94
2022-08-17T12:34:19.419Z,101301.56
2022-08-17T12:36:50.150Z,101291.75
2022-08-17T12:39:25.171Z,101301.19
2022-08-17T12:42:01.568Z,101301.03
2022-08-17T12:44:32.357Z,101310.59
2022-08-17T12:47:04.671Z,101313.22
2022-08-17T12:49:36.918Z,101300.09
2022-08-17T12:52:23.576Z,101283.50
2022-08-17T12:54:52.652Z,101277.28
2022-08-17T12:57:26.319Z,101286.00
2022-08-17T13:00:00.758Z,101286.00
2022-08-17T13:02:39.381Z,101299.97
2022-08-17T13:05:08.216Z,101310.47
2022-08-17T13:07:42.357Z,101315.97
2022-08-17T13:10:17.135Z,101317.19
2022-08-17T13:12:43.537Z,101314.84
2022-08-17T13:15:20.499Z,101321.97
2022-08-17T13:17:57.218Z,101320.34
2022-08-17T13:20:23.940Z,101315.22
2022-08-17T13:22:59.123Z,101321.28
2022-08-17T13:25:27.598Z,101315.78
2022-08-17T13:27:57.849Z,101320.91
2022-08-17T13:30:28.276Z,101311.94
2022-08-17T13:32:56.851Z,101310.13
2022-08-17T13:35:40.576Z,101303.81
2022-08-17T13:38:15.333Z,101312.38
2022-08-17T13:40:45.897Z,101294.84
2022-08-17T13:43:12.460Z,101301.63
2022-08-17T13:45:51.132Z,101291.13
2022-08-17T13:48:29.516Z,101294.31
2022-08-17T13:50:58.574Z,101297.75
2022-08-17T13:53:38.072Z,101293.50
2022-08-17T13:56:37.950Z,101298.59
2022-08-17T13:59:05.463Z,101287.25
2022-08-17T14:01:31.854Z,101286.56
2022-08-17T14:04:00.041Z,101279.50
2022-08-17T14:06:52.805Z,101284.63
2022-08-17T14:09:19.888Z,101277.59
2022-08-17T14:11:48.227Z,101281.03
2022-08-17T14:14:15.589Z,101282.00
2022-08-17T14:16:42.225Z,101274.84
2022-08-17T14:19:14.365Z,101272.22
2022-08-17T14:21:43.536Z,101262.44
2022-08-17T14:24:28.102Z,101257.41
2022-08-17T14:26:55.715Z,101260.88
2022-08-17T14:29:24.142Z,101256.75
2022-08-17T14:31:54.092Z,101250.78
2022-08-17T14:34:21.909Z,101245.53
2022-08-17T14:36:48.859Z,101241.25
2022-08-17T14:39:17.280Z,101248.28
2022-08-17T14:41:43.885Z,101243.88
2022-08-17T14:44:12.979Z,101238.63
2022-08-17T14:46:41.204Z,101238.50
2022-08-17T14:49:08.656Z,101236.69
2022-08-17T14:51:43.589Z,101239.31
2022-08-17T14:54:11.484Z,101227.00
2022-08-17T14:57:23.140Z,101230.63
2022-08-17T14:59:44.197Z,101236.69
2022-08-17T15:02:10.767Z,101232.25
2022-08-17T15:04:41.965Z,101241.66
2022-08-17T15:07:11.532Z,101232.13
2022-08-17T15:09:37.883Z,101237.25
2022-08-17T15:12:06.473Z,101229.28
2022-08-17T15:14:35.256Z,101233.66
2022-08-17T15:17:02.832Z,101225.09
2022-08-17T15:19:29.236Z,101225.94
2022-08-17T15:21:55.603Z,101232.13
2022-08-17T15:24:21.972Z,101237.38
2022-08-17T15:26:48.376Z,101225.38
2022-08-17T15:29:14.730Z,101234.06
2022-08-17T15:31:41.119Z,101238.50
2022-08-17T15:34:07.970Z,101236.00
2022-08-17T15:36:35.540Z,101240.28
2022-08-17T15:39:02.998Z,101233.25
2022-08-17T15:41:29.666Z,101246.38
2022-08-17T15:43:56.372Z,101240.41
2022-08-17T15:46:25.379Z,101238.63
2022-08-17T15:48:55.516Z,101240.41
2022-08-17T15:51:27.762Z,101242.22
2022-08-17T15:54:04.585Z,101240.41
2022-08-17T15:56:46.208Z,101243.88
2022-08-17T15:59:12.636Z,101242.91
2022-08-17T16:03:14.042Z,101242.06
2022-08-17T16:04:26.919Z,101241.41
2022-08-17T16:06:56.952Z,101239.84
2022-08-17T16:09:23.295Z,101246.88
2022-08-17T16:11:55.066Z,101246.06
2022-08-17T16:14:22.559Z,101245.09
2022-08-17T16:16:50.452Z,101240.81
2022-08-17T16:19:17.038Z,101247.59
2022-08-17T16:21:43.513Z,101236.00
2022-08-17T16:24:13.068Z,101250.78
2022-08-17T16:26:40.399Z,101241.25
2022-08-17T16:29:07.424Z,101241.41
2022-08-17T16:31:35.889Z,101245.78
2022-08-17T16:34:16.069Z,101246.06
2022-08-17T16:36:51.786Z,101243.44
2022-08-17T16:39:22.376Z,101249.38
2022-08-17T16:41:50.181Z,101237.09
2022-08-17T16:44:18.747Z,101243.88
2022-08-17T16:46:46.440Z,101244.69
2022-08-17T16:49:31.585Z,101248.16
2022-08-17T16:52:03.206Z,101245.53
2022-08-17T16:54:29.608Z,101256.03
2022-08-17T16:56:55.938Z,101261.41
2022-08-17T16:59:31.290Z,101269.41
2022-08-17T17:02:10.692Z,101266.78
2022-08-17T17:04:49.221Z,101268.59
2022-08-17T17:07:33.765Z,101262.41
2022-08-17T17:10:14.182Z,101257.25
2022-08-17T17:13:02.302Z,101251.03
2022-08-17T17:15:37.170Z,101247.59
2022-08-17T17:18:06.952Z,101246.75
2022-08-17T17:20:45.673Z,101246.88
2022-08-17T17:23:37.727Z,101252.97
2022-08-17T17:26:28.877Z,101250.34
2022-08-17T17:29:20.268Z,101257.38
2022-08-17T17:32:09.397Z,101261.13
2022-08-17T17:34:38.020Z,101268.00
2022-08-17T17:37:14.174Z,101269.56
2022-08-17T17:39:53.911Z,101266.66
2022-08-17T17:42:28.163Z,101265.56
2022-08-17T17:45:05.823Z,101265.44
2022-08-17T17:47:32.942Z,101279.38
2022-08-17T17:50:01.369Z,101281.03
2022-08-17T17:52:51.823Z,101284.41
2022-08-17T17:55:45.221Z,101281.78
2022-08-17T17:58:26.355Z,101270.31
2022-08-17T18:01:41.882Z,101278.19
2022-08-17T18:04:23.981Z,101276.41
2022-08-17T18:07:29.308Z,101282.47
2022-08-17T18:10:03.094Z,101277.22
2022-08-17T18:12:36.781Z,101274.47
2022-08-17T18:15:29.381Z,101276.28
2022-08-17T18:18:02.125Z,101280.41
2022-08-17T18:20:36.061Z,101290.09
2022-08-17T18:23:14.980Z,101294.38
2022-08-17T18:25:44.776Z,101301.28
2022-08-17T18:28:26.180Z,101302.25
2022-08-17T18:31:18.800Z,101304.03
2022-08-17T18:33:48.604Z,101304.03
2022-08-17T18:36:28.784Z,101312.75
2022-08-17T18:39:17.821Z,101309.16
2022-08-17T18:41:48.031Z,101311.69
2022-08-17T18:44:38.157Z,101309.16
2022-08-17T18:47:18.107Z,101305.56
2022-08-17T18:49:50.395Z,101302.00
2022-08-17T18:52:23.873Z,101307.25
2022-08-17T18:55:00.993Z,101303.66
2022-08-17T18:57:41.893Z,101309.72
2022-08-17T19:00:29.657Z,101302.00
2022-08-17T19:03:03.523Z,101310.69
2022-08-17T19:05:40.895Z,101312.50
2022-08-17T19:08:22.457Z,101310.00
2022-08-17T19:10:53.881Z,101305.56
2022-08-17T19:13:27.282Z,101313.44
2022-08-17T19:16:12.190Z,101325.44
2022-08-17T19:18:52.613Z,101330.09
2022-08-17T19:21:40.444Z,101328.56
2022-08-17T19:24:21.814Z,101341.69
2022-08-17T19:26:59.435Z,101345.25
2022-08-17T19:29:40.896Z,101354.00
2022-08-17T19:32:09.613Z,101357.44
2022-08-17T19:34:38.946Z,101362.94
2022-08-17T19:37:29.687Z,101365.56
2022-08-17T19:40:04.941Z,101368.06
2022-08-17T19:42:50.013Z,101372.38
2022-08-17T19:45:51.864Z,101371.38
2022-08-17T19:48:36.470Z,101373.75
2022-08-17T19:51:40.853Z,101381.56
2022-08-17T19:54:20.365Z,101382.59
2022-08-17T19:56:56.566Z,101383.69
2022-08-17T19:59:46.116Z,101381.31
2022-08-17T20:02:20.421Z,101381.47
2022-08-17T20:04:50.688Z,101373.72
2022-08-17T20:07:21.962Z,101375.50
2022-08-17T20:09:58.212Z,101382.41
2022-08-17T20:12:31.000Z,101377.75
2022-08-17T20:15:04.663Z,101366.13
2022-08-17T20:17:37.003Z,101364.09
2022-08-17T20:20:20.224Z,101362.28
2022-08-17T20:22:52.686Z,101369.13
2022-08-17T20:25:45.178Z,101356.13
2022-08-17T20:28:35.047Z,101359.44
2022-08-17T20:31:02.761Z,101348.94
2022-08-17T20:33:36.656Z,101347.16
2022-08-17T20:36:05.988Z,101343.69
2022-08-17T20:38:46.036Z,101340.22
2022-08-17T20:41:22.464Z,101334.84
2022-08-17T20:43:55.308Z,101343.53
2022-08-17T20:46:37.330Z,101344.41
2022-08-17T20:49:24.013Z,101345.22
2022-08-17T20:52:07.565Z,101353.91
2022-08-17T20:54:43.008Z,101353.22
2022-08-17T20:57:29.764Z,101354.91
2022-08-17T20:59:57.869Z,101347.16
2022-08-17T21:02:27.468Z,101348.78
2022-08-17T21:04:54.334Z,101352.41
2022-08-17T21:07:33.133Z,101355.16
2022-08-17T21:10:14.000Z,101364.81
2022-08-17T21:13:21.701Z,101362.19
2022-08-17T21:15:57.146Z,101372.69
2022-08-17T21:18:26.434Z,101377.00
2022-08-17T21:21:17.994Z,101372.78
2022-08-17T21:24:19.270Z,101375.31
2022-08-17T21:27:16.392Z,101376.31
2022-08-17T21:30:21.328Z,101388.44
2022-08-17T21:33:10.853Z,101380.66
2022-08-17T21:36:00.471Z,101378.03
2022-08-17T21:38:36.958Z,101378.94
2022-08-17T21:41:04.140Z,101385.91
2022-08-17T21:43:34.296Z,101386.88
2022-08-17T21:46:21.827Z,101390.34
2022-08-17T21:48:50.409Z,101392.97
2022-08-17T21:51:26.037Z,101393.94
2022-08-17T21:53:55.971Z,101399.19
2022-08-17T21:56:31.470Z,101394.88
2022-08-17T21:59:39.911Z,101404.56
2022-08-17T22:02:09.590Z,101399.31
2022-08-17T22:04:39.002Z,101402.06
2022-08-17T22:07:10.174Z,101397.63
2022-08-17T22:09:46.001Z,101403.59
2022-08-17T22:12:15.880Z,101397.50
2022-08-17T22:14:56.451Z,101408.13
2022-08-17T22:17:26.874Z,101407.31
2022-08-17T22:20:01.297Z,101404.69
2022-08-17T22:23:14.732Z,101406.50
2022-08-17T22:26:00.536Z,101397.75
2022-08-17T22:28:41.764Z,101392.38
2022-08-17T22:31:13.256Z,101390.63
2022-08-17T22:33:45.485Z,101389.75
2022-08-17T22:36:24.617Z,101392.50
2022-08-17T22:38:54.391Z,101405.63
2022-08-17T22:41:25.911Z,101403.00
2022-08-17T22:43:54.026Z,101408.25
2022-08-17T22:46:23.828Z,101406.50
2022-08-17T22:48:53.759Z,101402.19
2022-08-17T22:51:22.842Z,101406.50
2022-08-17T22:54:11.176Z,101413.50
2022-08-17T22:56:56.911Z,101419.75
2022-08-17T22:59:47.664Z,101418.91
2022-08-17T23:02:26.556Z,101422.38
2022-08-17T23:05:12.695Z,101420.69
2022-08-17T23:07:40.489Z,101422.38
2022-08-17T23:10:09.452Z,101423.31
2022-08-17T23:12:38.830Z,101422.50
2022-08-17T23:15:12.636Z,101420.69
2022-08-17T23:17:38.999Z,101419.03
2022-08-17T23:20:08.403Z,101411.16
2022-08-17T23:22:37.884Z,101409.38
2022-08-17T23:25:25.420Z,101418.06
2022-08-17T23:27:51.945Z,101419.03
2022-08-17T23:30:18.494Z,101432.16
2022-08-17T23:32:53.201Z,101437.41
2022-08-17T23:35:20.389Z,101435.63
2022-08-17T23:38:07.431Z,101428.69
2022-08-17T23:40:33.767Z,101436.44
2022-08-17T23:43:00.149Z,101432.16
2022-08-17T23:45:30.964Z,101426.91
2022-08-17T23:47:57.452Z,101423.44
2022-08-17T23:50:24.985Z,101419.97
2022-08-17T23:52:56.356Z,101414.03
2022-08-17T23:55:22.704Z,101402.59
2022-08-17T23:57:49.245Z,101411.28
